sensor_id;sensor_type;location;lat;lon;timestamp;temperature;humidity
42907;DHT22;28552;51.146;6.576;2023-11-22T00:01:28;5.60;99.90
42907;DHT22;28552;51.146;6.576;2023-11-22T00:04:28;5.70;99.90
42907;DHT22;28552;51.146;6.576;2023-11-22T00:07:29;5.80;99.90
42907;DHT22;28552;51.146;6.576;2023-11-22T00:10:29;5.80;99.90
42907;DHT22;28552;51.146;6.576;2023-11-22T00:13:30;5.80;99.90
42907;DHT22;28552;51.146;6.576;2023-11-22T00:16:32;5.80;99.90
42907;DHT22;28552;51.146;6.576;2023-11-22T00:19:32;5.80;99.90
42907;DHT22;28552;51.146;6.576;2023-11-22T00:22:35;5.80;99.90
42907;DHT22;28552;51.146;6.576;2023-11-22T00:25:35;5.80;99.90
42907;DHT22;28552;51.146;6.576;2023-11-22T00:28:36;5.90;99.90
42907;DHT22;28552;51.146;6.576;2023-11-22T00:31:36;5.90;99.90
42907;DHT22;28552;51.146;6.576;2023-11-22T00:34:37;5.90;99.90
42907;DHT22;28552;51.146;6.576;2023-11-22T00:37:37;5.90;99.90
42907;DHT22;28552;51.146;6.576;2023-11-22T00:40:38;5.90;99.90
42907;DHT22;28552;51.146;6.576;2023-11-22T00:43:38;5.80;99.90
42907;DHT22;28552;51.146;6.576;2023-11-22T00:46:39;5.70;99.90
42907;DHT22;28552;51.146;6.576;2023-11-22T00:49:40;5.70;99.90
42907;DHT22;28552;51.146;6.576;2023-11-22T00:52:40;5.60;99.90
42907;DHT22;28552;51.146;6.576;2023-11-22T00:55:45;5.50;99.90
42907;DHT22;28552;51.146;6.576;2023-11-22T00:58:45;5.50;99.90
42907;DHT22;28552;51.146;6.576;2023-11-22T01:01:46;5.40;99.90
42907;DHT22;28552;51.146;6.576;2023-11-22T01:04:46;5.40;99.90
42907;DHT22;28552;51.146;6.576;2023-11-22T01:07:47;5.40;99.90
42907;DHT22;28552;51.146;6.576;2023-11-22T01:10:47;5.40;99.90
42907;DHT22;28552;51.146;6.576;2023-11-22T01:13:48;5.40;99.90
42907;DHT22;28552;51.146;6.576;2023-11-22T01:16:48;5.40;99.90
42907;DHT22;28552;51.146;6.576;2023-11-22T01:19:49;5.30;99.90
42907;DHT22;28552;51.146;6.576;2023-11-22T01:22:51;5.30;99.90
42907;DHT22;28552;51.146;6.576;2023-11-22T01:25:51;5.20;99.90
42907;DHT22;28552;51.146;6.576;2023-11-22T01:28:52;5.10;99.90
42907;DHT22;28552;51.146;6.576;2023-11-22T01:31:52;5.00;99.90
42907;DHT22;28552;51.146;6.576;2023-11-22T01:34:53;4.90;99.90
42907;DHT22;28552;51.146;6.576;2023-11-22T01:37:53;4.90;99.90
42907;DHT22;28552;51.146;6.576;2023-11-22T01:40:54;4.90;99.90
42907;DHT22;28552;51.146;6.576;2023-11-22T01:43:54;4.90;99.90
42907;DHT22;28552;51.146;6.576;2023-11-22T01:46:55;4.80;99.90
42907;DHT22;28552;51.146;6.576;2023-11-22T01:49:55;4.80;99.90
42907;DHT22;28552;51.146;6.576;2023-11-22T01:52:57;4.70;99.90
42907;DHT22;28552;51.146;6.576;2023-11-22T01:55:58;4.60;99.90
42907;DHT22;28552;51.146;6.576;2023-11-22T01:58:58;4.50;99.90
42907;DHT22;28552;51.146;6.576;2023-11-22T02:02:00;4.50;99.90
42907;DHT22;28552;51.146;6.576;2023-11-22T02:05:02;4.40;99.90
42907;DHT22;28552;51.146;6.576;2023-11-22T02:08:03;4.40;99.90
42907;DHT22;28552;51.146;6.576;2023-11-22T02:11:04;4.40;99.90
42907;DHT22;28552;51.146;6.576;2023-11-22T02:14:04;4.30;99.90
42907;DHT22;28552;51.146;6.576;2023-11-22T02:17:07;4.30;99.90
42907;DHT22;28552;51.146;6.576;2023-11-22T02:20:08;4.20;99.90
42907;DHT22;28552;51.146;6.576;2023-11-22T02:23:11;4.10;99.90
42907;DHT22;28552;51.146;6.576;2023-11-22T02:26:11;4.00;99.90
42907;DHT22;28552;51.146;6.576;2023-11-22T02:29:13;4.00;99.90
42907;DHT22;28552;51.146;6.576;2023-11-22T02:32:13;4.00;99.90
42907;DHT22;28552;51.146;6.576;2023-11-22T02:35:14;4.10;99.90
42907;DHT22;28552;51.146;6.576;2023-11-22T02:38:16;4.00;99.90
42907;DHT22;28552;51.146;6.576;2023-11-22T02:41:18;4.00;99.90
42907;DHT22;28552;51.146;6.576;2023-11-22T02:44:19;4.00;99.90
42907;DHT22;28552;51.146;6.576;2023-11-22T02:47:19;4.00;99.90
42907;DHT22;28552;51.146;6.576;2023-11-22T02:50:20;4.00;99.90
42907;DHT22;28552;51.146;6.576;2023-11-22T02:53:21;4.00;99.90
42907;DHT22;28552;51.146;6.576;2023-11-22T02:56:21;4.00;99.90
42907;DHT22;28552;51.146;6.576;2023-11-22T02:59:22;3.90;99.90
42907;DHT22;28552;51.146;6.576;2023-11-22T03:02:22;3.80;99.90
42907;DHT22;28552;51.146;6.576;2023-11-22T03:05:24;3.80;99.90
42907;DHT22;28552;51.146;6.576;2023-11-22T03:08:24;3.70;99.90
42907;DHT22;28552;51.146;6.576;2023-11-22T03:11:25;3.60;99.90
42907;DHT22;28552;51.146;6.576;2023-11-22T03:14:25;3.60;99.90
42907;DHT22;28552;51.146;6.576;2023-11-22T03:17:27;3.50;99.90
42907;DHT22;28552;51.146;6.576;2023-11-22T03:20:28;3.50;99.90
42907;DHT22;28552;51.146;6.576;2023-11-22T03:23:31;3.50;99.90
42907;DHT22;28552;51.146;6.576;2023-11-22T03:26:31;3.50;99.90
42907;DHT22;28552;51.146;6.576;2023-11-22T03:29:32;3.50;99.90
42907;DHT22;28552;51.146;6.576;2023-11-22T03:32:33;3.40;99.90
42907;DHT22;28552;51.146;6.576;2023-11-22T03:35:38;3.40;99.90
42907;DHT22;28552;51.146;6.576;2023-11-22T03:38:39;3.30;99.90
42907;DHT22;28552;51.146;6.576;2023-11-22T03:41:41;3.30;99.90
42907;DHT22;28552;51.146;6.576;2023-11-22T03:44:42;3.30;99.90
42907;DHT22;28552;51.146;6.576;2023-11-22T03:47:43;3.20;99.90
42907;DHT22;28552;51.146;6.576;2023-11-22T03:50:43;3.20;99.90
42907;DHT22;28552;51.146;6.576;2023-11-22T03:53:44;3.10;99.90
42907;DHT22;28552;51.146;6.576;2023-11-22T03:56:44;3.20;99.90
42907;DHT22;28552;51.146;6.576;2023-11-22T03:59:45;3.20;99.90
42907;DHT22;28552;51.146;6.576;2023-11-22T04:02:45;3.20;99.90
42907;DHT22;28552;51.146;6.576;2023-11-22T04:05:46;3.20;99.90
42907;DHT22;28552;51.146;6.576;2023-11-22T04:08:47;3.10;99.90
42907;DHT22;28552;51.146;6.576;2023-11-22T04:11:47;3.00;99.90
42907;DHT22;28552;51.146;6.576;2023-11-22T04:14:48;2.90;99.90
42907;DHT22;28552;51.146;6.576;2023-11-22T04:17:50;2.80;99.90
42907;DHT22;28552;51.146;6.576;2023-11-22T04:20:50;2.80;99.90
42907;DHT22;28552;51.146;6.576;2023-11-22T04:23:51;2.70;99.90
42907;DHT22;28552;51.146;6.576;2023-11-22T04:26:52;2.60;99.90
42907;DHT22;28552;51.146;6.576;2023-11-22T04:29:52;2.60;99.90
42907;DHT22;28552;51.146;6.576;2023-11-22T04:32:53;2.60;99.90
42907;DHT22;28552;51.146;6.576;2023-11-22T04:35:54;2.50;99.90
42907;DHT22;28552;51.146;6.576;2023-11-22T04:38:54;2.50;99.90
42907;DHT22;28552;51.146;6.576;2023-11-22T04:41:55;2.50;99.90
42907;DHT22;28552;51.146;6.576;2023-11-22T04:44:56;2.50;99.90
42907;DHT22;28552;51.146;6.576;2023-11-22T04:47:56;2.50;99.90
42907;DHT22;28552;51.146;6.576;2023-11-22T04:50:58;2.50;99.90
42907;DHT22;28552;51.146;6.576;2023-11-22T04:53:58;2.50;99.90
42907;DHT22;28552;51.146;6.576;2023-11-22T04:56:59;2.40;99.90
42907;DHT22;28552;51.146;6.576;2023-11-22T05:00:00;2.40;99.90
42907;DHT22;28552;51.146;6.576;2023-11-22T05:03:01;2.40;99.90
42907;DHT22;28552;51.146;6.576;2023-11-22T05:06:01;2.30;99.90
42907;DHT22;28552;51.146;6.576;2023-11-22T05:09:02;2.30;99.90
42907;DHT22;28552;51.146;6.576;2023-11-22T05:12:02;2.30;99.90
42907;DHT22;28552;51.146;6.576;2023-11-22T05:15:04;2.20;99.90
42907;DHT22;28552;51.146;6.576;2023-11-22T05:18:04;2.20;99.90
42907;DHT22;28552;51.146;6.576;2023-11-22T05:21:06;2.20;99.90
42907;DHT22;28552;51.146;6.576;2023-11-22T05:24:07;2.20;99.90
42907;DHT22;28552;51.146;6.576;2023-11-22T05:27:09;2.20;99.90
42907;DHT22;28552;51.146;6.576;2023-11-22T05:30:10;2.20;99.90
42907;DHT22;28552;51.146;6.576;2023-11-22T05:33:11;2.20;99.90
42907;DHT22;28552;51.146;6.576;2023-11-22T05:36:12;2.20;99.90
42907;DHT22;28552;51.146;6.576;2023-11-22T05:39:12;2.10;99.90
42907;DHT22;28552;51.146;6.576;2023-11-22T05:42:13;2.10;99.90
42907;DHT22;28552;51.146;6.576;2023-11-22T05:45:13;2.00;99.90
42907;DHT22;28552;51.146;6.576;2023-11-22T05:48:14;2.00;99.90
42907;DHT22;28552;51.146;6.576;2023-11-22T05:51:15;2.00;99.90
42907;DHT22;28552;51.146;6.576;2023-11-22T05:54:16;2.00;99.90
42907;DHT22;28552;51.146;6.576;2023-11-22T05:57:16;2.00;99.90
42907;DHT22;28552;51.146;6.576;2023-11-22T06:00:20;2.00;99.90
42907;DHT22;28552;51.146;6.576;2023-11-22T06:03:21;2.00;99.90
42907;DHT22;28552;51.146;6.576;2023-11-22T06:06:22;2.10;99.90
42907;DHT22;28552;51.146;6.576;2023-11-22T06:09:23;2.00;99.90
42907;DHT22;28552;51.146;6.576;2023-11-22T06:12:23;2.00;99.90
42907;DHT22;28552;51.146;6.576;2023-11-22T06:15:24;1.90;99.90
42907;DHT22;28552;51.146;6.576;2023-11-22T06:18:24;1.90;99.90
42907;DHT22;28552;51.146;6.576;2023-11-22T06:21:30;1.80;99.90
42907;DHT22;28552;51.146;6.576;2023-11-22T06:24:30;1.80;99.90
42907;DHT22;28552;51.146;6.576;2023-11-22T06:27:33;1.70;99.90
42907;DHT22;28552;51.146;6.576;2023-11-22T06:30:34;1.70;99.90
42907;DHT22;28552;51.146;6.576;2023-11-22T06:33:35;1.70;99.90
42907;DHT22;28552;51.146;6.576;2023-11-22T06:36:36;1.60;99.90
42907;DHT22;28552;51.146;6.576;2023-11-22T06:39:37;1.60;99.90
42907;DHT22;28552;51.146;6.576;2023-11-22T06:42:38;1.60;99.90
42907;DHT22;28552;51.146;6.576;2023-11-22T06:45:38;1.50;99.90
42907;DHT22;28552;51.146;6.576;2023-11-22T06:48:39;1.50;99.90
42907;DHT22;28552;51.146;6.576;2023-11-22T06:51:40;1.50;99.90
42907;DHT22;28552;51.146;6.576;2023-11-22T06:54:40;1.40;99.90
42907;DHT22;28552;51.146;6.576;2023-11-22T06:57:42;1.40;99.90
42907;DHT22;28552;51.146;6.576;2023-11-22T07:10:16;1.30;99.90
42907;DHT22;28552;51.146;6.576;2023-11-22T07:19:43;1.40;99.90
42907;DHT22;28552;51.146;6.576;2023-11-22T07:22:47;1.40;99.90
42907;DHT22;28552;51.146;6.576;2023-11-22T07:26:00;1.40;99.90
42907;DHT22;28552;51.146;6.576;2023-11-22T07:29:01;1.40;99.90
42907;DHT22;28552;51.146;6.576;2023-11-22T07:32:01;1.40;99.90
42907;DHT22;28552;51.146;6.576;2023-11-22T07:35:02;1.40;99.90
42907;DHT22;28552;51.146;6.576;2023-11-22T07:38:03;1.30;99.90
42907;DHT22;28552;51.146;6.576;2023-11-22T07:41:04;1.30;99.90
42907;DHT22;28552;51.146;6.576;2023-11-22T07:44:04;1.30;99.90
42907;DHT22;28552;51.146;6.576;2023-11-22T07:47:06;1.30;99.90
42907;DHT22;28552;51.146;6.576;2023-11-22T07:50:10;1.40;99.90
42907;DHT22;28552;51.146;6.576;2023-11-22T07:53:11;1.40;99.90
42907;DHT22;28552;51.146;6.576;2023-11-22T07:56:12;1.50;99.90
42907;DHT22;28552;51.146;6.576;2023-11-22T07:59:13;1.50;99.90
42907;DHT22;28552;51.146;6.576;2023-11-22T08:02:14;1.60;99.90
42907;DHT22;28552;51.146;6.576;2023-11-22T08:05:17;1.60;99.90
42907;DHT22;28552;51.146;6.576;2023-11-22T08:08:18;1.70;99.90
42907;DHT22;28552;51.146;6.576;2023-11-22T08:11:19;1.70;99.90
42907;DHT22;28552;51.146;6.576;2023-11-22T08:14:20;1.80;99.90
42907;DHT22;28552;51.146;6.576;2023-11-22T08:17:21;1.90;99.90
42907;DHT22;28552;51.146;6.576;2023-11-22T08:20:21;1.90;99.90
42907;DHT22;28552;51.146;6.576;2023-11-22T08:23:22;2.00;99.90
42907;DHT22;28552;51.146;6.576;2023-11-22T08:26:22;2.10;99.90
42907;DHT22;28552;51.146;6.576;2023-11-22T08:29:26;2.10;99.90
42907;DHT22;28552;51.146;6.576;2023-11-22T08:32:27;2.20;99.90
42907;DHT22;28552;51.146;6.576;2023-11-22T08:35:31;2.30;99.90
42907;DHT22;28552;51.146;6.576;2023-11-22T08:38:31;2.30;99.90
42907;DHT22;28552;51.146;6.576;2023-11-22T08:41:33;2.30;99.90
42907;DHT22;28552;51.146;6.576;2023-11-22T08:44:34;2.40;99.90
42907;DHT22;28552;51.146;6.576;2023-11-22T08:47:35;2.50;99.90
42907;DHT22;28552;51.146;6.576;2023-11-22T08:50:35;2.60;99.90
42907;DHT22;28552;51.146;6.576;2023-11-22T08:53:36;2.60;99.90
42907;DHT22;28552;51.146;6.576;2023-11-22T08:56:37;2.70;99.90
42907;DHT22;28552;51.146;6.576;2023-11-22T08:59:38;2.70;99.90
42907;DHT22;28552;51.146;6.576;2023-11-22T09:02:38;2.80;99.90
42907;DHT22;28552;51.146;6.576;2023-11-22T09:05:40;2.80;99.90
42907;DHT22;28552;51.146;6.576;2023-11-22T09:08:40;2.90;99.90
42907;DHT22;28552;51.146;6.576;2023-11-22T09:11:41;2.90;99.90
42907;DHT22;28552;51.146;6.576;2023-11-22T09:14:42;3.00;99.90
42907;DHT22;28552;51.146;6.576;2023-11-22T09:17:43;3.10;99.90
42907;DHT22;28552;51.146;6.576;2023-11-22T09:20:43;3.20;99.90
42907;DHT22;28552;51.146;6.576;2023-11-22T09:23:44;3.30;99.90
42907;DHT22;28552;51.146;6.576;2023-11-22T09:26:45;3.40;99.90
42907;DHT22;28552;51.146;6.576;2023-11-22T09:29:45;3.60;99.90
42907;DHT22;28552;51.146;6.576;2023-11-22T09:32:46;3.70;99.90
42907;DHT22;28552;51.146;6.576;2023-11-22T09:35:47;3.70;99.90
42907;DHT22;28552;51.146;6.576;2023-11-22T09:38:48;3.90;99.90
42907;DHT22;28552;51.146;6.576;2023-11-22T09:41:48;3.90;99.90
42907;DHT22;28552;51.146;6.576;2023-11-22T09:44:49;4.00;99.90
42907;DHT22;28552;51.146;6.576;2023-11-22T09:47:49;4.10;99.90
42907;DHT22;28552;51.146;6.576;2023-11-22T09:54:04;4.30;99.90
42907;DHT22;28552;51.146;6.576;2023-11-22T09:57:07;4.40;99.90
42907;DHT22;28552;51.146;6.576;2023-11-22T10:00:11;4.40;99.90
42907;DHT22;28552;51.146;6.576;2023-11-22T10:03:14;4.40;99.90
42907;DHT22;28552;51.146;6.576;2023-11-22T10:06:15;4.40;99.90
42907;DHT22;28552;51.146;6.576;2023-11-22T10:09:16;4.50;99.90
42907;DHT22;28552;51.146;6.576;2023-11-22T10:12:19;4.60;99.90
42907;DHT22;28552;51.146;6.576;2023-11-22T10:15:21;4.80;99.90
42907;DHT22;28552;51.146;6.576;2023-11-22T10:18:22;4.90;99.90
42907;DHT22;28552;51.146;6.576;2023-11-22T10:21:27;4.90;99.90
42907;DHT22;28552;51.146;6.576;2023-11-22T10:24:31;5.00;99.90
42907;DHT22;28552;51.146;6.576;2023-11-22T10:27:33;5.10;99.90
42907;DHT22;28552;51.146;6.576;2023-11-22T10:30:34;5.10;99.90
42907;DHT22;28552;51.146;6.576;2023-11-22T10:33:43;5.20;99.90
42907;DHT22;28552;51.146;6.576;2023-11-22T10:36:43;5.20;99.90
42907;DHT22;28552;51.146;6.576;2023-11-22T10:39:50;5.30;99.90
42907;DHT22;28552;51.146;6.576;2023-11-22T10:42:51;5.40;99.90
42907;DHT22;28552;51.146;6.576;2023-11-22T10:45:53;5.40;99.90
42907;DHT22;28552;51.146;6.576;2023-11-22T10:48:55;5.40;99.90
42907;DHT22;28552;51.146;6.576;2023-11-22T10:51:57;5.50;99.90
42907;DHT22;28552;51.146;6.576;2023-11-22T10:55:03;5.50;99.90
42907;DHT22;28552;51.146;6.576;2023-11-22T10:58:04;5.60;99.90
42907;DHT22;28552;51.146;6.576;2023-11-22T11:01:06;5.60;99.90
42907;DHT22;28552;51.146;6.576;2023-11-22T11:04:09;5.50;99.90
42907;DHT22;28552;51.146;6.576;2023-11-22T11:07:14;5.50;99.90
42907;DHT22;28552;51.146;6.576;2023-11-22T11:10:17;5.60;99.90
42907;DHT22;28552;51.146;6.576;2023-11-22T11:13:19;5.60;99.90
42907;DHT22;28552;51.146;6.576;2023-11-22T11:16:21;5.70;99.90
42907;DHT22;28552;51.146;6.576;2023-11-22T11:19:22;5.80;99.90
42907;DHT22;28552;51.146;6.576;2023-11-22T11:22:24;5.90;99.90
42907;DHT22;28552;51.146;6.576;2023-11-22T11:25:25;6.10;99.90
42907;DHT22;28552;51.146;6.576;2023-11-22T11:28:26;6.10;99.90
42907;DHT22;28552;51.146;6.576;2023-11-22T11:31:31;6.20;99.90
42907;DHT22;28552;51.146;6.576;2023-11-22T11:34:51;6.20;99.90
42907;DHT22;28552;51.146;6.576;2023-11-22T11:37:59;6.30;99.90
42907;DHT22;28552;51.146;6.576;2023-11-22T11:41:08;6.30;99.90
42907;DHT22;28552;51.146;6.576;2023-11-22T11:44:09;6.40;99.90
42907;DHT22;28552;51.146;6.576;2023-11-22T11:47:11;6.40;99.90
42907;DHT22;28552;51.146;6.576;2023-11-22T11:50:11;6.30;99.90
42907;DHT22;28552;51.146;6.576;2023-11-22T11:53:12;6.40;99.90
42907;DHT22;28552;51.146;6.576;2023-11-22T11:56:13;6.30;99.90
42907;DHT22;28552;51.146;6.576;2023-11-22T11:59:14;6.40;99.90
42907;DHT22;28552;51.146;6.576;2023-11-22T12:02:15;6.40;99.90
42907;DHT22;28552;51.146;6.576;2023-11-22T12:05:20;6.50;99.90
42907;DHT22;28552;51.146;6.576;2023-11-22T12:08:20;6.70;99.90
42907;DHT22;28552;51.146;6.576;2023-11-22T12:11:21;6.80;99.90
42907;DHT22;28552;51.146;6.576;2023-11-22T12:14:24;6.90;99.90
42907;DHT22;28552;51.146;6.576;2023-11-22T12:17:26;6.90;99.90
42907;DHT22;28552;51.146;6.576;2023-11-22T12:20:27;6.80;99.90
42907;DHT22;28552;51.146;6.576;2023-11-22T12:23:31;6.70;99.90
42907;DHT22;28552;51.146;6.576;2023-11-22T12:26:32;6.60;99.90
42907;DHT22;28552;51.146;6.576;2023-11-22T12:29:36;6.50;99.90
42907;DHT22;28552;51.146;6.576;2023-11-22T12:32:39;6.40;99.90
42907;DHT22;28552;51.146;6.576;2023-11-22T12:35:40;6.30;99.90
42907;DHT22;28552;51.146;6.576;2023-11-22T12:38:42;6.20;99.90
42907;DHT22;28552;51.146;6.576;2023-11-22T12:41:44;6.20;99.90
42907;DHT22;28552;51.146;6.576;2023-11-22T12:44:48;6.20;99.90
42907;DHT22;28552;51.146;6.576;2023-11-22T12:47:51;6.20;99.90
42907;DHT22;28552;51.146;6.576;2023-11-22T12:50:52;6.20;99.90
42907;DHT22;28552;51.146;6.576;2023-11-22T12:53:54;6.30;99.90
42907;DHT22;28552;51.146;6.576;2023-11-22T12:56:54;6.40;99.90
42907;DHT22;28552;51.146;6.576;2023-11-22T12:59:58;6.50;99.90
42907;DHT22;28552;51.146;6.576;2023-11-22T13:02:59;6.60;99.90
42907;DHT22;28552;51.146;6.576;2023-11-22T13:05:59;6.70;99.90
42907;DHT22;28552;51.146;6.576;2023-11-22T13:09:00;6.70;99.90
42907;DHT22;28552;51.146;6.576;2023-11-22T13:12:00;6.70;99.90
42907;DHT22;28552;51.146;6.576;2023-11-22T13:15:01;6.60;99.90
42907;DHT22;28552;51.146;6.576;2023-11-22T13:18:02;6.50;99.90
42907;DHT22;28552;51.146;6.576;2023-11-22T13:21:03;6.40;99.90
42907;DHT22;28552;51.146;6.576;2023-11-22T13:24:04;6.40;99.90
42907;DHT22;28552;51.146;6.576;2023-11-22T13:27:09;6.30;99.90
42907;DHT22;28552;51.146;6.576;2023-11-22T13:30:10;6.40;99.90
42907;DHT22;28552;51.146;6.576;2023-11-22T13:33:11;6.50;99.90
42907;DHT22;28552;51.146;6.576;2023-11-22T13:36:13;6.70;99.90
42907;DHT22;28552;51.146;6.576;2023-11-22T13:39:14;6.80;99.90
42907;DHT22;28552;51.146;6.576;2023-11-22T13:42:15;6.90;99.90
42907;DHT22;28552;51.146;6.576;2023-11-22T13:45:16;7.00;99.90
42907;DHT22;28552;51.146;6.576;2023-11-22T13:48:18;7.10;99.90
42907;DHT22;28552;51.146;6.576;2023-11-22T13:51:18;7.20;99.90
42907;DHT22;28552;51.146;6.576;2023-11-22T13:54:19;7.10;99.90
42907;DHT22;28552;51.146;6.576;2023-11-22T13:57:19;7.10;99.90
42907;DHT22;28552;51.146;6.576;2023-11-22T14:00:22;7.00;99.90
42907;DHT22;28552;51.146;6.576;2023-11-22T14:03:24;7.00;99.90
42907;DHT22;28552;51.146;6.576;2023-11-22T14:06:25;6.90;99.90
42907;DHT22;28552;51.146;6.576;2023-11-22T14:09:26;6.80;99.90
42907;DHT22;28552;51.146;6.576;2023-11-22T14:12:27;6.70;99.90
42907;DHT22;28552;51.146;6.576;2023-11-22T14:15:27;6.70;99.90
42907;DHT22;28552;51.146;6.576;2023-11-22T14:18:28;6.60;99.90
42907;DHT22;28552;51.146;6.576;2023-11-22T14:21:29;6.50;99.90
42907;DHT22;28552;51.146;6.576;2023-11-22T14:24:32;6.50;99.90
42907;DHT22;28552;51.146;6.576;2023-11-22T14:27:38;6.40;99.90
42907;DHT22;28552;51.146;6.576;2023-11-22T14:30:39;6.30;99.90
42907;DHT22;28552;51.146;6.576;2023-11-22T14:33:40;6.30;99.90
42907;DHT22;28552;51.146;6.576;2023-11-22T14:36:41;6.20;99.90
42907;DHT22;28552;51.146;6.576;2023-11-22T14:39:41;6.20;99.90
42907;DHT22;28552;51.146;6.576;2023-11-22T14:42:43;6.10;99.90
42907;DHT22;28552;51.146;6.576;2023-11-22T14:45:46;6.10;99.90
42907;DHT22;28552;51.146;6.576;2023-11-22T14:48:47;6.10;99.90
42907;DHT22;28552;51.146;6.576;2023-11-22T14:51:49;6.00;99.90
42907;DHT22;28552;51.146;6.576;2023-11-22T14:54:50;6.00;99.90
42907;DHT22;28552;51.146;6.576;2023-11-22T14:57:52;6.00;99.90
42907;DHT22;28552;51.146;6.576;2023-11-22T15:00:54;5.90;99.90
42907;DHT22;28552;51.146;6.576;2023-11-22T15:03:57;5.90;99.90
42907;DHT22;28552;51.146;6.576;2023-11-22T15:06:57;5.90;99.90
42907;DHT22;28552;51.146;6.576;2023-11-22T15:09:58;5.90;99.90
42907;DHT22;28552;51.146;6.576;2023-11-22T15:12:59;5.90;99.90
42907;DHT22;28552;51.146;6.576;2023-11-22T15:16:00;5.90;99.90
42907;DHT22;28552;51.146;6.576;2023-11-22T15:19:00;5.80;99.90
42907;DHT22;28552;51.146;6.576;2023-11-22T15:22:02;5.80;99.90
42907;DHT22;28552;51.146;6.576;2023-11-22T15:25:04;5.80;99.90
42907;DHT22;28552;51.146;6.576;2023-11-22T15:28:05;5.80;99.90
42907;DHT22;28552;51.146;6.576;2023-11-22T15:31:07;5.80;99.90
42907;DHT22;28552;51.146;6.576;2023-11-22T15:34:07;5.80;99.90
42907;DHT22;28552;51.146;6.576;2023-11-22T15:37:09;5.80;99.90
42907;DHT22;28552;51.146;6.576;2023-11-22T15:40:12;5.80;99.90
42907;DHT22;28552;51.146;6.576;2023-11-22T15:43:13;5.80;99.90
42907;DHT22;28552;51.146;6.576;2023-11-22T15:46:14;5.80;99.90
42907;DHT22;28552;51.146;6.576;2023-11-22T15:49:17;5.70;99.90
42907;DHT22;28552;51.146;6.576;2023-11-22T15:52:18;5.70;99.90
42907;DHT22;28552;51.146;6.576;2023-11-22T15:55:18;5.70;99.90
42907;DHT22;28552;51.146;6.576;2023-11-22T15:58:19;5.70;99.90
42907;DHT22;28552;51.146;6.576;2023-11-22T16:01:19;5.70;99.90
42907;DHT22;28552;51.146;6.576;2023-11-22T16:04:20;5.80;99.90
42907;DHT22;28552;51.146;6.576;2023-11-22T16:07:20;5.80;99.90
42907;DHT22;28552;51.146;6.576;2023-11-22T16:10:21;5.80;99.90
42907;DHT22;28552;51.146;6.576;2023-11-22T16:13:22;5.80;99.90
42907;DHT22;28552;51.146;6.576;2023-11-22T16:16:22;5.70;99.90
42907;DHT22;28552;51.146;6.576;2023-11-22T16:19:23;5.80;99.90
42907;DHT22;28552;51.146;6.576;2023-11-22T16:22:24;5.80;99.90
42907;DHT22;28552;51.146;6.576;2023-11-22T16:25:25;5.80;99.90
42907;DHT22;28552;51.146;6.576;2023-11-22T16:28:26;5.80;99.90
42907;DHT22;28552;51.146;6.576;2023-11-22T16:31:26;5.70;99.90
42907;DHT22;28552;51.146;6.576;2023-11-22T16:34:27;5.70;99.90
42907;DHT22;28552;51.146;6.576;2023-11-22T16:37:28;5.70;99.90
42907;DHT22;28552;51.146;6.576;2023-11-22T16:40:29;5.80;99.90
42907;DHT22;28552;51.146;6.576;2023-11-22T16:43:30;5.70;99.90
42907;DHT22;28552;51.146;6.576;2023-11-22T16:46:31;5.70;99.90
42907;DHT22;28552;51.146;6.576;2023-11-22T16:49:33;5.70;99.90
42907;DHT22;28552;51.146;6.576;2023-11-22T16:52:35;5.60;99.90
42907;DHT22;28552;51.146;6.576;2023-11-22T16:55:36;5.50;99.90
42907;DHT22;28552;51.146;6.576;2023-11-22T16:58:36;5.50;99.90
42907;DHT22;28552;51.146;6.576;2023-11-22T17:01:39;5.50;99.90
42907;DHT22;28552;51.146;6.576;2023-11-22T17:04:40;5.50;99.90
42907;DHT22;28552;51.146;6.576;2023-11-22T17:07:42;5.50;99.90
42907;DHT22;28552;51.146;6.576;2023-11-22T17:10:42;5.50;99.90
42907;DHT22;28552;51.146;6.576;2023-11-22T17:13:43;5.60;99.90
42907;DHT22;28552;51.146;6.576;2023-11-22T17:16:43;5.60;99.90
42907;DHT22;28552;51.146;6.576;2023-11-22T17:19:44;5.60;99.90
42907;DHT22;28552;51.146;6.576;2023-11-22T17:22:47;5.60;99.90
42907;DHT22;28552;51.146;6.576;2023-11-22T17:25:47;5.60;99.90
42907;DHT22;28552;51.146;6.576;2023-11-22T17:28:48;5.60;99.90
42907;DHT22;28552;51.146;6.576;2023-11-22T17:31:48;5.70;99.90
42907;DHT22;28552;51.146;6.576;2023-11-22T17:34:49;5.70;99.90
42907;DHT22;28552;51.146;6.576;2023-11-22T17:37:50;5.70;99.90
42907;DHT22;28552;51.146;6.576;2023-11-22T17:40:54;5.80;99.90
42907;DHT22;28552;51.146;6.576;2023-11-22T17:43:55;5.80;99.90
42907;DHT22;28552;51.146;6.576;2023-11-22T17:46:56;5.80;99.90
42907;DHT22;28552;51.146;6.576;2023-11-22T17:49:58;5.70;99.90
42907;DHT22;28552;51.146;6.576;2023-11-22T17:52:59;5.80;99.90
42907;DHT22;28552;51.146;6.576;2023-11-22T17:56:00;5.70;99.90
42907;DHT22;28552;51.146;6.576;2023-11-22T17:59:02;5.70;99.90
42907;DHT22;28552;51.146;6.576;2023-11-22T18:02:04;5.70;99.90
42907;DHT22;28552;51.146;6.576;2023-11-22T18:05:05;5.80;99.90
42907;DHT22;28552;51.146;6.576;2023-11-22T18:08:06;5.70;99.90
42907;DHT22;28552;51.146;6.576;2023-11-22T18:11:06;5.70;99.90
42907;DHT22;28552;51.146;6.576;2023-11-22T18:14:07;5.70;99.90
42907;DHT22;28552;51.146;6.576;2023-11-22T18:17:08;5.70;99.90
42907;DHT22;28552;51.146;6.576;2023-11-22T18:20:09;5.60;99.90
42907;DHT22;28552;51.146;6.576;2023-11-22T18:23:10;5.60;99.90
42907;DHT22;28552;51.146;6.576;2023-11-22T18:26:11;5.50;99.90
42907;DHT22;28552;51.146;6.576;2023-11-22T18:29:12;5.40;99.90
42907;DHT22;28552;51.146;6.576;2023-11-22T18:32:15;5.40;99.90
42907;DHT22;28552;51.146;6.576;2023-11-22T18:35:16;5.30;99.90
42907;DHT22;28552;51.146;6.576;2023-11-22T18:38:17;5.30;99.90
42907;DHT22;28552;51.146;6.576;2023-11-22T18:41:21;5.20;99.90
42907;DHT22;28552;51.146;6.576;2023-11-22T18:44:21;5.10;99.90
42907;DHT22;28552;51.146;6.576;2023-11-22T18:47:22;5.10;99.90
42907;DHT22;28552;51.146;6.576;2023-11-22T18:50:23;5.00;99.90
42907;DHT22;28552;51.146;6.576;2023-11-22T18:53:23;5.00;99.90
42907;DHT22;28552;51.146;6.576;2023-11-22T18:56:25;5.00;99.90
42907;DHT22;28552;51.146;6.576;2023-11-22T18:59:26;5.00;99.90
42907;DHT22;28552;51.146;6.576;2023-11-22T19:02:26;5.10;99.90
42907;DHT22;28552;51.146;6.576;2023-11-22T19:05:27;5.10;99.90
42907;DHT22;28552;51.146;6.576;2023-11-22T19:08:27;5.20;99.90
42907;DHT22;28552;51.146;6.576;2023-11-22T19:11:28;5.20;99.90
42907;DHT22;28552;51.146;6.576;2023-11-22T19:14:29;5.30;99.90
42907;DHT22;28552;51.146;6.576;2023-11-22T19:17:30;5.30;99.90
42907;DHT22;28552;51.146;6.576;2023-11-22T19:20:31;5.20;99.90
42907;DHT22;28552;51.146;6.576;2023-11-22T19:23:31;5.20;99.90
42907;DHT22;28552;51.146;6.576;2023-11-22T19:26:32;5.20;99.90
42907;DHT22;28552;51.146;6.576;2023-11-22T19:29:37;5.20;99.90
42907;DHT22;28552;51.146;6.576;2023-11-22T19:32:38;5.10;99.90
42907;DHT22;28552;51.146;6.576;2023-11-22T19:35:40;5.00;99.90
42907;DHT22;28552;51.146;6.576;2023-11-22T19:38:40;5.00;99.90
42907;DHT22;28552;51.146;6.576;2023-11-22T19:41:41;5.00;99.90